Time;durP1;ratioP1;P1;durP2;ratioP2;P2;SDS_P1;SDS_P2;PMS_P1;PMS_P2;Temp;Humidity;BMP_temperature;BMP_pressure;BME280_temperature;BME280_humidity;BME280_pressure;Samples;Min_cycle;Max_cycle;Signal;HPM_P1;HPM_P2
2023/01/11 00:15:08;;;;;;;37.40;16.10;;;;;;;4.38;100.00;100865.22;216833;1297;139087;-90
2023/01/11 00:21:07;;;;;;;;;;;;;;;;;;;;;
2023/01/11 00:27:07;;;;;;;;;;;;;;;;;;;;;
2023/01/11 00:33:01;;;;;;;31.70;15.30;;;;;;;4.31;100.00;100864.89;216928;1298;139460;-90
2023/01/11 00:51:06;;;;;;;;;;;;;;;;;;;;;
2023/01/11 00:56:50;;;;;;;;;;;;;;;;;;;;;
2023/01/11 01:02:36;;;;;;;;;;;;;;;;;;;;;
2023/01/11 01:08:06;;;;;;;;;;;;;;;;;;;;;
2023/01/11 01:31:11;;;;;;;37.40;17.30;;;;;;;4.04;100.00;100855.33;217678;1296;107659;-91
2023/01/11 01:42:23;;;;;;;38.50;18.50;;;;;;;3.91;100.00;100842.92;217049;1297;139013;-89
2023/01/11 02:05:24;;;;;;;37.00;17.40;;;;;;;3.64;100.00;100813.34;217064;1297;140052;-90
2023/01/11 02:11:42;;;;;;;36.30;18.70;;;;;;;3.55;100.00;100803.98;217739;1296;107384;-91
2023/01/11 02:17:15;;;;;;;;;;;;;;;;;;;;;
2023/01/11 02:28:43;;;;;;;33.20;17.00;;;;;;;3.27;100.00;100786.61;217615;1297;108350;-88
2023/01/11 02:46:29;;;;;;;;;;;;;;;;;;;;;
2023/01/11 02:52:21;;;;;;;27.40;13.40;;;;;;;2.92;100.00;100761.31;216953;1298;138516;-89
2023/01/11 03:04:23;;;;;;;29.80;13.00;;;;;;;2.77;100.00;100756.62;216735;1297;139896;-89
2023/01/11 03:10:45;;;;;;;27.10;13.90;;;;;;;2.70;100.00;100752.96;217408;1298;107523;-90
2023/01/11 03:33:58;;;;;;;;;;;;;;;;;;;;;
2023/01/11 03:40:09;;;;;;;;;;;;;;;;;;;;;
2023/01/11 03:46:17;;;;;;;28.40;12.10;;;;;;;2.46;100.00;100700.75;216323;1305;138708;-91
2023/01/11 04:18:04;;;;;;;;;;;;;;;;;;;;;
2023/01/11 04:28:44;;;;;;;;;;;;;;;;;;;;;
2023/01/11 04:34:34;;;;;;;23.50;12.10;;;;;;;2.34;100.00;100624.80;217383;1299;138476;-91
2023/01/11 04:45:39;;;;;;;24.50;10.80;;;;;;;2.28;100.00;100616.83;216884;1299;138693;-91
2023/01/11 04:51:38;;;;;;;25.60;10.60;;;;;;;2.25;100.00;100609.27;217350;1298;94642;-91
2023/01/11 05:08:40;;;;;;;22.20;10.00;;;;;;;2.19;100.00;100592.01;217370;1299;109630;-91
2023/01/11 05:24:52;;;;;;;;;;;;;;;;;;;;;
2023/01/11 05:30:42;;;;;;;;;;;;;;;;;;;;;
2023/01/11 05:42:30;;;;;;;;;;;;;;;;;;;;;
2023/01/11 05:48:22;;;;;;;37.20;16.50;;;;;;;2.14;100.00;100566.33;217318;1299;110478;-93
2023/01/11 05:54:23;;;;;;;29.70;14.70;;;;;;;2.19;100.00;100560.95;216852;1299;139035;-90
2023/01/11 06:00:09;;;;;;;26.40;13.90;;;;;;;2.23;100.00;100562.63;217281;1299;110843;-90
2023/01/11 06:06:33;;;;;;;29.90;14.30;;;;;;;2.27;100.00;100561.70;216174;1298;138512;-90
2023/01/11 06:12:16;;;;;;;24.10;12.30;;;;;;;2.30;100.00;100569.73;216456;1299;138680;-90
2023/01/11 06:18:19;;;;;;;26.60;13.40;;;;;;;2.33;100.00;100563.14;216690;1301;109822;-88
2023/01/11 06:24:20;;;;;;;26.00;12.80;;;;;;;2.35;100.00;100543.69;216683;1301;138843;-90
2023/01/11 06:30:13;;;;;;;;;;;;;;;;;;;;;
2023/01/11 06:36:23;;;;;;;21.60;10.50;;;;;;;2.39;100.00;100511.99;216325;1299;138932;-89
2023/01/11 06:42:24;;;;;;;24.70;10.60;;;;;;;2.43;100.00;100518.77;216452;1298;139378;-87
2023/01/11 06:48:25;;;;;;;20.40;10.30;;;;;;;2.48;100.00;100527.87;216965;1299;109676;-87
2023/01/11 06:54:24;;;;;;;;;;;;;;;;;;;;;
2023/01/11 07:00:27;;;;;;;21.70;9.90;;;;;;;2.55;100.00;100519.84;216807;1299;105203;-87
2023/01/11 07:06:30;;;;;;;19.50;9.00;;;;;;;2.57;100.00;100519.33;216373;1299;138370;-87
2023/01/11 07:12:30;;;;;;;19.50;9.80;;;;;;;2.60;100.00;100521.14;216234;1300;138972;-90
2023/01/11 07:18:32;;;;;;;;;;;;;;;;;;;;;
2023/01/11 07:24:35;;;;;;;21.10;9.80;;;;;;;2.65;100.00;100507.10;216112;1300;140976;-86
2023/01/11 07:30:36;;;;;;;19.50;9.30;;;;;;;2.69;100.00;100507.98;216983;1299;104820;-85
2023/01/11 07:36:35;;;;;;;;;;;;;;;;;;;;;
2023/01/11 07:48:36;;;;;;;22.20;9.90;;;;;;;2.78;100.00;100511.23;216985;1300;104262;-88
2023/01/11 07:54:38;;;;;;;22.50;9.00;;;;;;;2.82;100.00;100508.13;216348;1299;139303;-85
2023/01/11 08:00:39;;;;;;;21.10;9.60;;;;;;;2.85;100.00;100497.30;216831;1299;105964;-86
2023/01/11 08:06:40;;;;;;;25.10;10.20;;;;;;;2.88;100.00;100496.27;216359;1299;138620;-84
2023/01/11 08:18:22;;;;;;;;;;;;;;;;;;;;;
2023/01/11 08:24:34;;;;;;;19.60;9.90;;;;;;;3.01;100.00;100483.41;216642;1299;138580;-89
2023/01/11 08:30:35;;;;;;;23.10;10.00;;;;;;;3.06;100.00;100472.26;216877;1299;104815;-87
2023/01/11 08:36:33;;;;;;;;;;;;;;;;;;;;;
2023/01/11 08:42:39;;;;;;;;;;;;;;;;;;;;;
2023/01/11 08:48:43;;;;;;;21.00;9.30;;;;;;;3.23;100.00;100461.73;217084;1299;104234;-87
2023/01/11 08:54:29;;;;;;;;;;;;;;;;;;;;;
2023/01/11 09:00:32;;;;;;;19.50;9.50;;;;;;;3.40;100.00;100471.05;216997;1299;105324;-90
2023/01/11 09:06:33;;;;;;;22.30;11.70;;;;;;;3.49;100.00;100474.48;216489;1302;139168;-90
2023/01/11 09:12:26;;;;;;;;;;;;;;;;;;;;;
2023/01/11 09:18:27;;;;;;;;;;;;;;;;;;;;;
2023/01/11 09:24:36;;;;;;;18.60;9.10;;;;;;;3.72;100.00;100464.00;216562;1299;138436;-86
2023/01/11 09:36:39;;;;;;;19.00;9.20;;;;;;;3.87;100.00;100453.77;216469;1299;138937;-88
2023/01/11 09:42:42;;;;;;;15.90;8.00;;;;;;;3.96;100.00;100447.46;216394;1299;138907;-88
2023/01/11 09:48:42;;;;;;;39.50;14.40;;;;;;;4.03;100.00;100445.33;216915;1299;94754;-83
2023/01/11 09:54:44;;;;;;;38.90;15.40;;;;;;;4.11;100.00;100436.28;216041;1299;139559;-89
2023/01/11 10:00:45;;;;;;;22.80;9.10;;;;;;;4.20;100.00;100416.92;217016;1299;94897;-89
2023/01/11 10:07:14;;;;;;;19.30;7.70;;;;;;;4.29;100.00;100400.44;216570;1299;138838;-90
2023/01/11 10:13:17;;;;;;;;;;;;;;;;;;;;;
2023/01/11 10:26:11;;;;;;;21.20;7.90;;;;;;;4.62;100.00;100387.98;215144;1307;138275;-91
2023/01/11 10:32:33;;;;;;;18.80;7.40;;;;;;;4.72;100.00;100377.27;216659;1299;94963;-85
2023/01/11 10:38:09;;;;;;;18.20;7.30;;;;;;;4.81;100.00;100367.76;216803;1298;138008;-90
2023/01/11 10:43:58;;;;;;;21.40;7.30;;;;;;;4.89;100.00;100360.85;216452;1299;138628;-91
2023/01/11 10:50:05;;;;;;;18.80;7.10;;;;;;;4.98;100.00;100365.48;216778;1299;94766;-84
2023/01/11 10:56:03;;;;;;;;;;;;;;;;;;;;;
2023/01/11 11:02:52;;;;;;;15.90;6.90;;;;;;;5.13;99.97;100348.20;212654;1301;5348261;-84
2023/01/11 11:08:29;;;;;;;;;;;;;;;;;;;;;
2023/01/11 11:14:40;;;;;;;15.80;6.90;;;;;;;5.25;99.26;100322.92;216732;1299;140462;-89
2023/01/11 11:40:06;;;;;;;21.00;8.00;;;;;;;5.44;97.28;100294.05;216804;1301;104894;-89
2023/01/11 11:46:07;;;;;;;13.70;6.00;;;;;;;5.51;98.43;100290.56;216176;1299;138714;-90
2023/01/11 11:52:09;;;;;;;18.30;6.60;;;;;;;5.56;97.56;100283.48;216441;1301;139693;-87
2023/01/11 11:58:12;;;;;;;23.50;8.10;;;;;;;5.60;97.53;100267.05;216467;1305;105040;-89
2023/01/11 12:04:05;;;;;;;;;;;;;;;;;;;;;
2023/01/11 12:10:26;;;;;;;;;;;;;;;;;;;;;
2023/01/11 12:16:23;;;;;;;;;;;;;;;;;;;;;
2023/01/11 12:22:24;;;;;;;22.10;7.90;;;;;;;5.76;97.35;100216.80;214923;1307;138149;-88
2023/01/11 12:28:27;;;;;;;;;;;;;;;;;;;;;
2023/01/11 12:34:29;;;;;;;;;;;;;;;;;;;;;
2023/01/11 12:40:40;;;;;;;21.80;9.20;;;;;;;5.91;96.73;100196.52;216543;1302;105063;-85
2023/01/11 12:46:54;;;;;;;;;;;;;;;;;;;;;
2023/01/11 12:52:54;;;;;;;;;;;;;;;;;;;;;
2023/01/11 12:59:21;;;;;;;24.00;9.70;;;;;;;6.06;97.44;100179.45;216428;1302;105434;-87
2023/01/11 13:12:04;;;;;;;;;;;;;;;;;;;;;
2023/01/11 13:18:31;;;;;;;23.40;8.60;;;;;;;6.20;98.19;100160.05;216751;1302;105073;-92
2023/01/11 13:36:44;;;;;;;19.80;8.00;;;;;;;6.22;97.47;100147.77;215905;1302;138243;-89
2023/01/11 13:42:45;;;;;;;21.30;9.70;;;;;;;6.24;97.37;100146.70;215921;1301;139348;-91
2023/01/11 13:54:42;;;;;;;20.70;8.20;;;;;;;6.28;96.99;100141.49;215900;1304;138908;-88
2023/01/11 14:00:53;;;;;;;;;;;;;;;;;;;;;
2023/01/11 14:19:07;;;;;;;;;;;;;;;;;;;;;
2023/01/11 15:09:14;;;;;;;25.20;9.10;;;;;;;6.22;97.19;100090.38;217432;1301;106272;-89
2023/01/11 16:14:21;;;;;;;34.10;13.90;;;;;;;6.28;96.93;100065.06;174264;1292;107562;-90
2023/01/11 16:44:25;;;;;;;;;;;;;;;;;;;;;
2023/01/11 17:16:18;;;;;;;23.50;10.20;;;;;;;6.53;99.99;100083.42;216099;1301;138687;-85
2023/01/11 17:22:54;;;;;;;;;;;;;;;;;;;;;
2023/01/11 17:28:21;;;;;;;25.10;12.20;;;;;;;6.34;100.00;100087.36;216939;1300;96078;-88
2023/01/11 18:25:02;;;;;;;25.80;14.10;;;;;;;6.05;100.00;100068.60;216308;1302;138704;-88
2023/01/11 18:37:24;;;;;;;28.50;15.40;;;;;;;6.07;100.00;100075.60;214880;1308;139554;-90
2023/01/11 18:42:15;;;;;;;24.50;15.40;;;;;;;6.09;100.00;100078.52;215994;1303;139985;-89
2023/01/11 19:04:47;;;;;;;31.10;18.10;;;;;;;6.15;100.00;100084.20;190346;1301;95588;-90
2023/01/11 19:10:20;;;;;;;30.40;17.60;;;;;;;6.15;100.00;100082.02;217133;1300;94826;-90
2023/01/11 19:16:11;;;;;;;;;;;;;;;;;;;;;
2023/01/11 19:22:07;;;;;;;29.10;17.50;;;;;;;6.22;100.00;100086.86;216800;1295;138966;-89
2023/01/11 19:28:08;;;;;;;28.90;18.60;;;;;;;6.25;100.00;100091.06;217425;1296;95270;-90
2023/01/11 19:33:52;;;;;;;;;;;;;;;;;;;;;
2023/01/11 19:39:46;;;;;;;;;;;;;;;;;;;;;
2023/01/11 19:45:39;;;;;;;;;;;;;;;;;;;;;
2023/01/11 19:51:30;;;;;;;;;;;;;;;;;;;;;
2023/01/11 19:57:28;;;;;;;33.90;19.80;;;;;;;6.33;100.00;100096.31;216603;1301;138867;-90
2023/01/11 20:02:32;;;;;;;32.60;19.50;;;;;;;6.37;100.00;100109.69;216167;1300;139502;-88
2023/01/11 20:08:22;;;;;;;;;;;;;;;;;;;;;
2023/01/11 20:31:37;;;;;;;26.90;15.80;;;;;;;6.48;100.00;100133.14;217180;1297;94834;-91
2023/01/11 20:37:22;;;;;;;;;;;;;;;;;;;;;
2023/01/11 20:43:13;;;;;;;29.10;16.20;;;;;;;6.56;100.00;100139.41;216423;1299;138986;-88
2023/01/11 22:50:20;;;;;;;21.60;13.60;;;;;;;7.14;100.00;100230.56;217224;1304;94868;-93
2023/01/11 23:07:55;;;;;;;21.50;13.20;;;;;;;7.24;100.00;100250.77;216778;1302;94987;-89
2023/01/11 23:20:17;;;;;;;21.90;13.70;;;;;;;7.28;100.00;100256.60;216096;1306;94753;-89
2023/01/11 23:26:16;;;;;;;;;;;;;;;;;;;;;
2023/01/11 23:32:20;;;;;;;23.50;13.10;;;;;;;7.33;100.00;100263.50;216325;1301;139520;-87
2023/01/11 23:38:14;;;;;;;20.70;12.50;;;;;;;7.35;100.00;100271.06;216383;1304;95546;-89
2023/01/11 23:44:16;;;;;;;21.40;12.30;;;;;;;7.37;100.00;100269.68;215914;1302;138301;-89
2023/01/11 23:50:17;;;;;;;21.40;13.30;;;;;;;7.39;100.00;100268.64;216843;1300;94800;-89
2023/01/11 23:56:18;;;;;;;20.40;11.90;;;;;;;7.40;100.00;100267.09;216546;1300;138524;-88
